createdAt,value
2018-07-29T04:10:08.033Z,20
2018-07-29T04:10:33.531Z,20
2018-07-29T04:10:59.013Z,20
2018-07-29T04:11:24.530Z,20
2018-07-29T04:11:50.006Z,20
2018-07-29T04:12:15.493Z,25
2018-07-29T04:12:40.987Z,25
2018-07-29T04:13:06.466Z,25
2018-07-29T04:13:31.997Z,25
2018-07-29T04:13:57.484Z,25
2018-07-29T04:14:23.022Z,25
2018-07-29T04:14:48.496Z,25
2018-07-29T04:15:14.018Z,25
2018-07-29T04:15:39.509Z,25
2018-07-29T04:16:05.012Z,30
2018-07-29T04:16:30.486Z,30
2018-07-29T04:16:55.972Z,30
2018-07-29T04:17:21.502Z,30
2018-07-29T04:17:46.967Z,30
2018-07-29T04:18:12.463Z,35
2018-07-29T04:18:37.926Z,35
2018-07-29T04:19:51.720Z,30
2018-07-29T04:20:17.220Z,30
2018-07-29T04:20:42.675Z,30
2018-07-29T04:21:08.201Z,30
2018-07-29T04:21:33.677Z,35
2018-07-29T04:21:59.144Z,35
2018-07-29T04:22:24.666Z,35
2018-07-29T04:22:50.120Z,35
2018-07-29T04:23:15.792Z,40
2018-07-29T04:23:41.196Z,40
2018-07-29T04:24:06.701Z,40
2018-07-29T04:24:32.190Z,45
2018-07-29T04:24:57.671Z,45
2018-07-29T04:25:23.202Z,45
2018-07-29T04:25:48.696Z,50
2018-07-29T04:26:14.230Z,50
2018-07-29T04:26:39.660Z,50
2018-07-29T04:28:09.790Z,55
2018-07-29T04:28:35.291Z,55
2018-07-29T04:29:00.789Z,55
2018-07-29T04:30:29.898Z,65
2018-07-29T04:30:55.390Z,65
2018-07-29T04:31:20.894Z,70
2018-07-29T04:31:46.385Z,70
2018-07-29T04:32:11.847Z,70
2018-07-29T04:32:37.345Z,70
2018-07-29T04:33:02.853Z,75
2018-07-29T04:33:28.357Z,75
2018-07-29T04:33:53.902Z,75
2018-07-29T04:34:19.458Z,75
2018-07-29T04:34:44.947Z,80
2018-07-29T04:35:10.443Z,80
2018-07-29T04:35:35.926Z,80
2018-07-29T04:36:01.441Z,80
2018-07-29T04:36:26.954Z,80
2018-07-29T04:36:52.452Z,80
2018-07-29T04:37:17.962Z,80
2018-07-29T04:37:43.464Z,75
2018-07-29T04:38:09.214Z,75
2018-07-29T04:38:34.730Z,75
2018-07-29T04:39:00.225Z,75
2018-07-29T04:39:25.742Z,75
2018-07-29T04:39:51.239Z,70
2018-07-29T04:40:16.736Z,70
2018-07-29T04:40:42.258Z,70
2018-07-29T04:41:07.742Z,70
2018-07-29T04:41:33.251Z,65
2018-07-29T04:41:58.750Z,65
2018-07-29T04:42:24.224Z,70
2018-07-29T04:42:49.723Z,70
2018-07-29T04:43:15.224Z,70
2018-07-29T04:43:40.691Z,70
2018-07-29T04:44:06.202Z,70
2018-07-29T04:45:30.281Z,70
2018-07-29T04:45:55.682Z,65
2018-07-29T04:46:21.196Z,65
2018-07-29T04:46:46.695Z,65
2018-07-29T04:47:12.168Z,65
2018-07-29T04:47:37.653Z,70
2018-07-29T04:48:03.134Z,70
2018-07-29T04:48:28.598Z,70
2018-07-29T04:48:54.085Z,70
2018-07-29T04:49:19.590Z,70
2018-07-29T04:49:45.097Z,70
2018-07-29T04:50:10.586Z,75
2018-07-29T04:50:36.050Z,75
2018-07-29T04:51:01.532Z,75
2018-07-29T04:51:27.097Z,75
2018-07-29T04:51:52.498Z,75
2018-07-29T04:52:17.979Z,75
2018-07-29T04:52:43.468Z,75
2018-07-29T04:53:08.971Z,75
2018-07-29T04:53:34.735Z,80
2018-07-29T04:54:00.178Z,80
2018-07-29T04:54:25.807Z,80
2018-07-29T04:54:51.262Z,80
2018-07-29T04:55:16.745Z,80
2018-07-29T04:55:42.188Z,80
2018-07-29T04:56:07.732Z,80
2018-07-29T04:56:33.232Z,80
2018-07-29T04:56:58.642Z,80
2018-07-29T04:57:24.149Z,80
2018-07-29T04:57:49.649Z,80
2018-07-29T04:58:15.229Z,80
2018-07-29T04:58:40.738Z,80
2018-07-29T04:59:06.154Z,80
2018-07-29T04:59:31.596Z,80
2018-07-29T04:59:57.051Z,80
2018-07-29T05:00:22.557Z,80
2018-07-29T05:00:48.016Z,80
2018-07-29T05:01:13.461Z,80
2018-07-29T05:01:38.923Z,80
2018-07-29T05:02:04.465Z,80
2018-07-29T05:02:29.848Z,80
2018-07-29T05:02:55.501Z,80
2018-07-29T05:03:21.120Z,80
2018-07-29T05:03:46.548Z,80
2018-07-29T05:04:12.019Z,75
2018-07-29T05:04:37.511Z,75
2018-07-29T05:05:02.999Z,75
2018-07-29T05:05:28.481Z,75
2018-07-29T05:05:53.985Z,75
2018-07-29T05:06:19.449Z,75
2018-07-29T05:06:44.937Z,75
2018-07-29T05:07:10.394Z,75
2018-07-29T05:07:35.861Z,75
2018-07-29T05:08:01.382Z,70
2018-07-29T05:08:26.854Z,70
2018-07-29T05:08:52.352Z,70
2018-07-29T05:09:17.845Z,75
2018-07-29T05:09:43.343Z,75
2018-07-29T05:10:08.811Z,75
2018-07-29T05:10:34.332Z,75
2018-07-29T05:10:59.922Z,75
2018-07-29T05:11:25.364Z,75
2018-07-29T05:12:54.876Z,75
2018-07-29T05:13:21.456Z,75
2018-07-29T05:13:46.923Z,75
2018-07-29T05:14:12.513Z,75
2018-07-29T05:14:37.876Z,80
2018-07-29T05:15:03.341Z,80
2018-07-29T05:15:28.861Z,80
2018-07-29T05:15:54.377Z,80
2018-07-29T05:16:19.895Z,80
2018-07-29T05:16:45.370Z,80
2018-07-29T05:17:10.844Z,85
2018-07-29T05:17:36.339Z,85
2018-07-29T05:18:01.879Z,85
2018-07-29T05:18:27.363Z,90
2018-07-29T05:18:52.843Z,90
2018-07-29T05:19:18.306Z,90
2018-07-29T05:19:43.802Z,95
2018-07-29T05:20:09.270Z,95
2018-07-29T05:20:34.726Z,95
2018-07-29T05:21:00.227Z,95
2018-07-29T05:21:25.765Z,95
2018-07-29T05:21:51.230Z,95
2018-07-29T05:22:16.732Z,90
2018-07-29T05:22:42.255Z,90
2018-07-29T05:23:07.730Z,90
2018-07-29T05:23:33.249Z,90
2018-07-29T05:23:58.721Z,90
2018-07-29T05:24:24.196Z,95
2018-07-29T05:24:49.675Z,90
2018-07-29T05:25:15.336Z,95
2018-07-29T05:25:40.840Z,95
2018-07-29T05:26:06.360Z,95
2018-07-29T05:26:31.824Z,95
2018-07-29T05:26:57.526Z,95
2018-07-29T05:27:23.146Z,95
2018-07-29T05:27:48.642Z,95
2018-07-29T05:28:14.105Z,95
2018-07-29T05:28:39.622Z,95
2018-07-29T05:29:05.118Z,95
2018-07-29T05:29:30.669Z,95
2018-07-29T05:29:56.178Z,95
2018-07-29T05:30:21.667Z,95
2018-07-29T05:30:47.161Z,95
2018-07-29T05:31:12.708Z,105
2018-07-29T05:31:38.183Z,100
2018-07-29T05:32:03.683Z,105
2018-07-29T05:32:29.168Z,105
2018-07-29T05:32:54.628Z,105
2018-07-29T05:33:20.155Z,110
2018-07-29T05:33:45.701Z,110
2018-07-29T05:34:11.196Z,110
2018-07-29T05:34:36.668Z,105
2018-07-29T05:35:02.168Z,105
2018-07-29T05:35:27.706Z,105
2018-07-29T05:35:53.176Z,105
2018-07-29T05:36:18.647Z,100
2018-07-29T05:37:37.553Z,100
2018-07-29T05:38:03.035Z,105
2018-07-29T05:38:28.551Z,105
2018-07-29T05:38:54.022Z,105
2018-07-29T05:39:19.518Z,110
2018-07-29T05:39:45.053Z,110
2018-07-29T05:40:10.561Z,115
2018-07-29T05:40:36.048Z,115
2018-07-29T05:41:44.722Z,120
2018-07-29T05:42:10.240Z,120
2018-07-29T05:42:35.750Z,120
2018-07-29T05:43:01.251Z,115
2018-07-29T05:43:26.748Z,115
2018-07-29T05:43:52.221Z,115
2018-07-29T05:44:17.716Z,110
2018-07-29T05:44:43.210Z,105
2018-07-29T05:45:08.731Z,110
2018-07-29T05:45:34.153Z,110
2018-07-29T05:45:59.668Z,115
2018-07-29T05:46:25.171Z,115
2018-07-29T05:46:50.688Z,120
2018-07-29T05:47:16.188Z,120
2018-07-29T05:47:41.683Z,120
2018-07-29T05:48:07.152Z,120
2018-07-29T05:48:32.645Z,120
2018-07-29T05:48:58.159Z,120
2018-07-29T05:49:23.714Z,120
2018-07-29T05:49:49.198Z,120
2018-07-29T05:50:14.689Z,120
2018-07-29T05:50:40.167Z,120
2018-07-29T05:52:04.159Z,125
2018-07-29T05:52:29.657Z,125
2018-07-29T05:52:55.138Z,125
2018-07-29T05:53:20.620Z,130
2018-07-29T05:54:49.725Z,135
2018-07-29T05:55:15.236Z,135
2018-07-29T05:55:40.757Z,135
2018-07-29T05:56:06.337Z,140
2018-07-29T05:56:31.857Z,140
2018-07-29T05:56:57.345Z,145
2018-07-29T05:57:22.823Z,145
2018-07-29T05:57:48.327Z,145
2018-07-29T05:58:14.073Z,150
2018-07-29T05:58:39.552Z,150
2018-07-29T05:59:05.080Z,150
2018-07-29T05:59:30.605Z,150
2018-07-29T05:59:56.112Z,150
2018-07-29T06:00:21.603Z,155
2018-07-29T06:00:47.123Z,155
2018-07-29T06:01:12.654Z,155
2018-07-29T06:01:38.220Z,160
2018-07-29T06:02:03.756Z,160
2018-07-29T06:03:32.816Z,165
2018-07-29T06:03:58.311Z,170
2018-07-29T06:04:23.881Z,170
2018-07-29T06:04:49.380Z,175
2018-07-29T06:05:14.881Z,180
2018-07-29T06:05:40.352Z,185
2018-07-29T06:06:05.933Z,185
2018-07-29T06:07:34.983Z,200
2018-07-29T06:08:00.466Z,200
2018-07-29T06:08:25.976Z,200
2018-07-29T06:08:51.598Z,200
2018-07-29T06:09:16.963Z,205
2018-07-29T06:09:42.464Z,205
2018-07-29T06:10:07.957Z,210
2018-07-29T06:10:33.463Z,210
2018-07-29T06:10:58.947Z,210
2018-07-29T06:11:24.454Z,215
2018-07-29T06:11:49.944Z,215
2018-07-29T06:12:15.445Z,220
2018-07-29T06:12:40.938Z,215
2018-07-29T06:13:06.433Z,215
2018-07-29T06:13:31.887Z,215
2018-07-29T06:13:57.363Z,215
2018-07-29T06:14:22.837Z,210
2018-07-29T06:14:48.376Z,210
2018-07-29T06:15:13.851Z,210
2018-07-29T06:15:39.330Z,205
2018-07-29T06:16:04.832Z,205
2018-07-29T06:16:30.786Z,205
2018-07-29T06:16:56.246Z,205
2018-07-29T06:17:21.740Z,200
2018-07-29T06:17:47.228Z,200
2018-07-29T06:18:12.726Z,200
2018-07-29T06:19:41.850Z,200
2018-07-29T06:20:07.312Z,205
2018-07-29T06:20:32.823Z,215
2018-07-29T06:20:58.335Z,260
2018-07-29T06:21:23.846Z,230
2018-07-29T06:21:49.339Z,205
2018-07-29T06:22:14.832Z,210
2018-07-29T06:22:40.302Z,210
2018-07-29T06:23:05.819Z,215
2018-07-29T06:23:31.422Z,215
2018-07-29T06:23:56.914Z,260
2018-07-29T06:24:22.431Z,230
2018-07-29T06:24:47.900Z,285
2018-07-29T06:25:13.496Z,295
2018-07-29T06:25:38.992Z,330
2018-07-29T06:26:04.530Z,280
2018-07-29T06:26:30.277Z,260
2018-07-29T06:26:55.799Z,245
2018-07-29T06:27:21.317Z,230
2018-07-29T06:27:46.777Z,220
2018-07-29T06:28:12.320Z,210
2018-07-29T06:28:37.767Z,210
2018-07-29T06:29:03.262Z,215
2018-07-29T06:29:28.734Z,220
2018-07-29T06:29:54.232Z,220
2018-07-29T06:30:19.713Z,210
2018-07-29T06:30:45.236Z,190
2018-07-29T06:31:10.747Z,180
2018-07-29T06:31:36.194Z,215
2018-07-29T06:32:01.658Z,175
2018-07-29T06:32:27.168Z,190
2018-07-29T06:32:52.646Z,215
2018-07-29T06:33:18.163Z,240
2018-07-29T06:33:43.657Z,260
2018-07-29T06:34:09.169Z,260
2018-07-29T06:34:34.645Z,260
2018-07-29T06:35:00.133Z,255
2018-07-29T06:35:25.682Z,250
2018-07-29T06:35:51.175Z,250
2018-07-29T06:36:16.672Z,245
2018-07-29T06:36:42.148Z,260
2018-07-29T06:37:07.680Z,255
2018-07-29T06:37:33.196Z,240
2018-07-29T06:37:58.723Z,235
2018-07-29T06:38:24.168Z,220
2018-07-29T06:38:49.661Z,250
2018-07-29T06:40:13.683Z,200
2018-07-29T06:40:39.188Z,205
2018-07-29T06:41:04.652Z,215
2018-07-29T06:41:30.137Z,230
2018-07-29T06:41:55.594Z,240
2018-07-29T06:42:21.087Z,270
2018-07-29T06:42:46.591Z,385
2018-07-29T06:43:12.163Z,430
2018-07-29T06:43:37.587Z,405
2018-07-29T06:44:03.072Z,380
2018-07-29T06:44:28.606Z,620
2018-07-29T06:44:54.107Z,630
2018-07-29T06:45:19.568Z,485
2018-07-29T06:45:45.094Z,475
2018-07-29T06:46:10.550Z,430
2018-07-29T06:46:36.121Z,570
2018-07-29T06:47:01.605Z,620
2018-07-29T06:47:27.092Z,585
2018-07-29T06:47:52.577Z,560
2018-07-29T06:48:18.029Z,540
2018-07-29T06:48:43.532Z,550
2018-07-29T06:49:09.008Z,510
2018-07-29T06:49:34.516Z,500
2018-07-29T06:50:00.012Z,485
2018-07-29T06:50:25.488Z,460
2018-07-29T06:50:51.124Z,425
2018-07-29T06:51:16.456Z,405
2018-07-29T06:51:41.933Z,380
2018-07-29T06:52:07.460Z,370
2018-07-29T06:52:32.986Z,355
2018-07-29T06:52:58.382Z,335
2018-07-29T06:53:23.922Z,330
2018-07-29T06:53:49.430Z,320
2018-07-29T06:54:14.888Z,310
2018-07-29T06:54:40.348Z,310
2018-07-29T06:55:05.806Z,300
2018-07-29T06:55:31.284Z,295
2018-07-29T06:55:56.808Z,285
2018-07-29T06:56:22.353Z,285
2018-07-29T06:56:47.780Z,285
2018-07-29T06:57:13.381Z,285
2018-07-29T06:58:42.398Z,280
2018-07-29T06:59:07.933Z,255
2018-07-29T06:59:33.417Z,250
2018-07-29T06:59:58.888Z,270
2018-07-29T07:00:24.389Z,285
2018-07-29T07:00:49.858Z,275
2018-07-29T07:01:15.373Z,265
2018-07-29T07:01:40.907Z,240
2018-07-29T07:02:06.376Z,240
2018-07-29T07:02:31.889Z,245
2018-07-29T07:02:57.368Z,255
2018-07-29T07:03:22.937Z,255
2018-07-29T07:03:48.432Z,255
2018-07-29T07:04:13.944Z,245
2018-07-29T07:04:39.438Z,250
2018-07-29T07:05:04.934Z,250
2018-07-29T07:05:30.455Z,240
2018-07-29T07:05:55.929Z,250
2018-07-29T07:06:21.423Z,245
2018-07-29T07:06:46.904Z,240
2018-07-29T07:07:12.388Z,240
2018-07-29T07:07:37.860Z,235
2018-07-29T07:08:03.339Z,245
2018-07-29T07:08:28.892Z,250
2018-07-29T07:08:54.378Z,255
2018-07-29T07:09:19.923Z,255
2018-07-29T07:09:45.387Z,255
2018-07-29T07:10:10.893Z,255
2018-07-29T07:10:36.562Z,255
2018-07-29T07:11:02.466Z,260
2018-07-29T07:11:28.183Z,260
2018-07-29T07:11:53.649Z,265
2018-07-29T07:12:19.169Z,270
2018-07-29T07:12:44.697Z,275
2018-07-29T07:13:10.193Z,275
2018-07-29T07:13:37.777Z,275
2018-07-29T07:14:03.400Z,280
2018-07-29T07:14:28.740Z,280
2018-07-29T07:14:54.242Z,280
2018-07-29T07:15:19.814Z,280
2018-07-29T07:15:45.306Z,280
2018-07-29T07:16:10.797Z,280
2018-07-29T07:16:36.261Z,280
2018-07-29T07:17:01.778Z,280
2018-07-29T07:17:27.246Z,280
2018-07-29T07:17:52.779Z,275
2018-07-29T07:18:18.263Z,280
2018-07-29T07:18:43.735Z,290
2018-07-29T07:19:09.199Z,310
2018-07-29T07:19:34.692Z,330
2018-07-29T07:20:58.744Z,400
2018-07-29T07:21:24.268Z,460
2018-07-29T07:21:49.784Z,510
2018-07-29T07:23:18.916Z,615
2018-07-29T07:23:44.467Z,650
2018-07-29T07:24:09.948Z,635
2018-07-29T07:25:28.861Z,760
2018-07-29T07:25:54.368Z,770
2018-07-29T07:26:19.846Z,785
2018-07-29T07:26:45.338Z,730
2018-07-29T07:27:10.895Z,730
2018-07-29T07:27:36.380Z,790
2018-07-29T07:28:01.825Z,780
2018-07-29T07:28:27.317Z,870
2018-07-29T07:28:52.813Z,885
2018-07-29T07:29:18.430Z,860
2018-07-29T07:29:43.893Z,860
2018-07-29T07:30:09.436Z,780
2018-07-29T07:30:34.928Z,595
2018-07-29T07:31:00.446Z,510
2018-07-29T07:31:25.920Z,340
2018-07-29T07:31:51.371Z,345
2018-07-29T07:32:16.874Z,420
2018-07-29T07:32:42.361Z,530
2018-07-29T07:33:07.839Z,730
2018-07-29T07:33:33.344Z,810
2018-07-29T07:33:58.831Z,950
2018-07-29T07:34:24.348Z,960
2018-07-29T07:34:49.934Z,970
2018-07-29T07:35:15.291Z,920
2018-07-29T07:35:40.798Z,860
2018-07-29T07:36:06.279Z,835
2018-07-29T07:36:31.889Z,830
2018-07-29T07:36:57.395Z,835
2018-07-29T07:37:22.875Z,830
2018-07-29T07:37:48.363Z,845
2018-07-29T07:38:13.827Z,870
2018-07-29T07:38:39.329Z,885
2018-07-29T07:39:04.857Z,880
2018-07-29T07:39:30.311Z,905
2018-07-29T07:39:55.818Z,1010
2018-07-29T07:40:21.349Z,1015
2018-07-29T07:40:46.870Z,1005
2018-07-29T07:41:12.334Z,890
2018-07-29T07:41:37.882Z,790
2018-07-29T07:42:03.433Z,665
2018-07-29T07:42:28.887Z,575
2018-07-29T07:42:54.387Z,580
2018-07-29T07:43:19.865Z,530
2018-07-29T07:43:45.342Z,525
2018-07-29T07:44:10.846Z,510
2018-07-29T07:44:36.325Z,485
2018-07-29T07:45:01.830Z,455
2018-07-29T07:45:27.437Z,450
2018-07-29T07:45:53.015Z,420
2018-07-29T07:46:18.475Z,405
2018-07-29T07:46:43.963Z,395
2018-07-29T07:47:09.420Z,380
2018-07-29T07:47:34.901Z,370
2018-07-29T07:48:00.524Z,360
2018-07-29T07:48:25.942Z,375
2018-07-29T07:48:51.415Z,360
2018-07-29T07:49:16.944Z,365
2018-07-29T07:49:42.537Z,365
2018-07-29T07:50:08.038Z,340
2018-07-29T07:50:33.677Z,340
2018-07-29T07:50:58.995Z,330
2018-07-29T07:51:24.719Z,330
2018-07-29T07:51:50.213Z,305
2018-07-29T07:52:15.710Z,315
2018-07-29T07:52:41.299Z,340
2018-07-29T07:53:06.783Z,380
2018-07-29T07:53:32.280Z,385
2018-07-29T07:53:57.784Z,395
2018-07-29T07:54:23.331Z,390
2018-07-29T07:54:48.811Z,390
2018-07-29T07:55:14.589Z,395
2018-07-29T07:55:40.155Z,410
2018-07-29T07:56:05.643Z,400
2018-07-29T07:56:31.202Z,360
2018-07-29T07:56:56.605Z,420
2018-07-29T07:57:22.107Z,440
2018-07-29T07:57:47.599Z,475
2018-07-29T07:58:13.103Z,480
2018-07-29T07:58:38.598Z,480
2018-07-29T07:59:04.091Z,485
2018-07-29T08:00:17.918Z,500
2018-07-29T08:00:43.392Z,490
2018-07-29T08:01:08.923Z,525
2018-07-29T08:01:34.413Z,535
2018-07-29T08:02:00.020Z,525
2018-07-29T08:02:25.439Z,520
2018-07-29T08:02:51.098Z,445
2018-07-29T08:03:16.637Z,400
2018-07-29T08:03:42.119Z,350
2018-07-29T08:04:07.608Z,330
2018-07-29T08:04:33.079Z,315
2018-07-29T08:06:02.222Z,305
2018-07-29T08:06:27.684Z,300
2018-07-29T08:06:53.211Z,300
2018-07-29T08:07:18.693Z,295
2018-07-29T08:07:44.313Z,290
2018-07-29T08:08:09.671Z,290
2018-07-29T08:08:35.171Z,290
2018-07-29T08:09:00.642Z,285
2018-07-29T08:09:26.338Z,280
2018-07-29T08:09:51.782Z,275
2018-07-29T08:10:17.268Z,280
2018-07-29T08:10:42.736Z,280
2018-07-29T08:11:08.218Z,275
2018-07-29T08:11:33.726Z,275
2018-07-29T08:11:59.204Z,280
2018-07-29T08:13:13.004Z,285
2018-07-29T08:13:38.528Z,290
2018-07-29T08:14:03.992Z,300
2018-07-29T08:14:29.435Z,310
2018-07-29T08:14:54.878Z,320
2018-07-29T08:15:20.373Z,310
2018-07-29T08:15:45.831Z,320
2018-07-29T08:16:11.305Z,285
2018-07-29T08:16:36.807Z,300
2018-07-29T08:17:02.249Z,335
2018-07-29T08:17:27.779Z,310
2018-07-29T08:17:53.166Z,340
2018-07-29T08:18:18.643Z,285
2018-07-29T08:18:44.121Z,280
2018-07-29T08:19:09.585Z,320
2018-07-29T08:20:23.457Z,315
2018-07-29T08:20:48.980Z,340
2018-07-29T08:21:14.452Z,305
2018-07-29T08:21:39.931Z,300
2018-07-29T08:22:05.397Z,370
2018-07-29T08:22:30.889Z,365
2018-07-29T08:22:56.333Z,370
2018-07-29T08:23:21.832Z,370
2018-07-29T08:25:29.058Z,370
2018-07-29T08:25:54.533Z,360
2018-07-29T08:26:20.085Z,375
2018-07-29T08:26:45.549Z,370
2018-07-29T08:27:11.058Z,375
2018-07-29T08:27:36.488Z,380
2018-07-29T08:28:01.991Z,370
2018-07-29T08:28:27.440Z,325
2018-07-29T08:28:52.907Z,335
2018-07-29T08:29:18.366Z,340
2018-07-29T08:29:44.104Z,350
2018-07-29T08:30:09.537Z,340
2018-07-29T08:30:34.997Z,335
2018-07-29T08:31:00.442Z,320
2018-07-29T08:31:25.878Z,310
2018-07-29T08:31:51.348Z,290
2018-07-29T08:32:16.797Z,290
2018-07-29T08:32:42.284Z,280
2018-07-29T08:33:07.723Z,270
2018-07-29T08:33:33.248Z,260
2018-07-29T08:33:58.636Z,250
2018-07-29T08:34:24.137Z,245
2018-07-29T08:34:49.588Z,245
2018-07-29T08:35:15.064Z,240
2018-07-29T08:35:40.511Z,235
2018-07-29T08:36:06.004Z,235
2018-07-29T08:36:31.436Z,230
2018-07-29T08:36:56.980Z,225
2018-07-29T08:37:22.443Z,225
2018-07-29T08:37:47.890Z,220
2018-07-29T08:38:13.371Z,225
2018-07-29T08:38:38.812Z,230
2018-07-29T08:39:04.341Z,220
2018-07-29T08:39:29.734Z,220
2018-07-29T08:39:55.175Z,235
2018-07-29T08:40:20.635Z,250
2018-07-29T08:40:46.085Z,285
2018-07-29T08:41:11.573Z,310
2018-07-29T08:41:37.010Z,325
2018-07-29T08:42:02.436Z,345
2018-07-29T08:42:27.920Z,365
2018-07-29T08:42:53.367Z,405
2018-07-29T08:43:18.888Z,425
2018-07-29T08:43:44.335Z,425
2018-07-29T08:44:09.796Z,440
2018-07-29T08:44:35.243Z,450
2018-07-29T08:45:00.770Z,460
2018-07-29T08:45:26.253Z,460
2018-07-29T08:45:51.672Z,465
2018-07-29T08:46:17.151Z,470
2018-07-29T08:46:42.650Z,465
2018-07-29T08:47:08.158Z,465
2018-07-29T08:47:33.560Z,465
2018-07-29T08:47:59.047Z,460
2018-07-29T08:48:24.609Z,460
2018-07-29T08:48:50.078Z,460
2018-07-29T08:49:15.520Z,455
2018-07-29T08:49:41.067Z,450
2018-07-29T08:50:06.541Z,450
2018-07-29T08:50:32.041Z,450
2018-07-29T08:50:57.522Z,445
2018-07-29T08:51:23.012Z,450
2018-07-29T08:51:48.515Z,455
2018-07-29T08:52:14.030Z,465
2018-07-29T08:52:39.508Z,455
2018-07-29T08:53:05.329Z,460
2018-07-29T08:53:30.978Z,465
2018-07-29T08:53:56.390Z,465
2018-07-29T08:54:21.843Z,470
2018-07-29T08:54:47.338Z,470
2018-07-29T08:55:12.782Z,460
2018-07-29T08:55:38.223Z,460
2018-07-29T08:56:03.675Z,455
2018-07-29T08:56:29.170Z,445
2018-07-29T08:56:54.671Z,435
2018-07-29T08:57:20.106Z,425
2018-07-29T08:57:45.537Z,415
2018-07-29T08:58:11.025Z,410
2018-07-29T08:58:36.506Z,405
2018-07-29T08:59:02.025Z,385
2018-07-29T08:59:27.469Z,385
2018-07-29T08:59:52.946Z,385
2018-07-29T09:00:18.403Z,380
2018-07-29T09:00:43.850Z,385
2018-07-29T09:01:09.268Z,375
2018-07-29T09:01:34.739Z,380
2018-07-29T09:02:00.215Z,380
2018-07-29T09:02:25.707Z,385
2018-07-29T09:02:51.264Z,385
2018-07-29T09:03:16.737Z,385
2018-07-29T09:03:42.190Z,385
2018-07-29T09:04:07.695Z,385
2018-07-29T09:04:33.136Z,390
2018-07-29T09:04:58.549Z,390
2018-07-29T09:05:24.055Z,400
2018-07-29T09:05:49.497Z,405
2018-07-29T09:06:14.971Z,415
2018-07-29T09:06:40.402Z,425
2018-07-29T09:07:05.892Z,425
2018-07-29T09:07:31.357Z,420
2018-07-29T09:07:56.896Z,410
2018-07-29T09:08:22.392Z,405
2018-07-29T09:08:47.863Z,400
2018-07-29T09:09:13.340Z,405
2018-07-29T09:09:38.774Z,395
2018-07-29T09:10:04.498Z,395
2018-07-29T09:10:30.069Z,395
2018-07-29T09:10:55.485Z,385
2018-07-29T09:11:20.992Z,380
2018-07-29T09:11:46.429Z,375
2018-07-29T09:12:11.900Z,370
2018-07-29T09:12:37.372Z,350
2018-07-29T09:13:02.822Z,345
2018-07-29T09:13:28.268Z,335
2018-07-29T09:13:53.733Z,330
2018-07-29T09:14:19.189Z,320
2018-07-29T09:14:44.651Z,315
2018-07-29T09:15:10.132Z,310
2018-07-29T09:15:35.583Z,300
2018-07-29T09:16:01.016Z,285
2018-07-29T09:16:26.485Z,270
2018-07-29T09:16:51.938Z,280
2018-07-29T09:17:17.420Z,285
2018-07-29T09:17:42.932Z,295
2018-07-29T09:18:08.386Z,295
2018-07-29T09:18:33.857Z,300
2018-07-29T09:18:59.313Z,300
2018-07-29T09:19:24.806Z,315
2018-07-29T09:19:50.258Z,335
2018-07-29T09:20:15.744Z,390
2018-07-29T09:20:41.210Z,390
2018-07-29T09:21:06.685Z,400
2018-07-29T09:21:32.172Z,395
2018-07-29T09:21:57.643Z,405
2018-07-29T09:22:23.162Z,390
2018-07-29T09:22:48.681Z,375
2018-07-29T09:23:14.171Z,370
2018-07-29T09:23:39.652Z,355
2018-07-29T09:24:05.128Z,345
2018-07-29T09:24:30.651Z,335
2018-07-29T09:24:56.115Z,345
2018-07-29T09:25:21.578Z,355
2018-07-29T09:25:47.035Z,350
2018-07-29T09:26:12.500Z,350
2018-07-29T09:26:37.928Z,345
2018-07-29T09:27:03.444Z,340
2018-07-29T09:27:28.958Z,340
2018-07-29T09:27:54.422Z,335
2018-07-29T09:28:19.898Z,335
2018-07-29T09:28:45.352Z,335
2018-07-29T09:29:10.855Z,330
2018-07-29T09:29:36.292Z,325
2018-07-29T09:30:01.775Z,310
2018-07-29T09:30:27.474Z,320
2018-07-29T09:30:52.893Z,310
2018-07-29T09:31:18.262Z,330
2018-07-29T09:31:43.734Z,335
2018-07-29T09:32:09.228Z,325
2018-07-29T09:32:34.731Z,340
2018-07-29T09:33:00.214Z,350
2018-07-29T09:33:25.669Z,360
2018-07-29T09:33:51.143Z,370
2018-07-29T09:34:16.597Z,375
2018-07-29T09:34:42.108Z,380
2018-07-29T09:35:07.598Z,375
2018-07-29T09:35:33.061Z,360
2018-07-29T09:35:58.537Z,375
2018-07-29T09:36:24.059Z,360
2018-07-29T09:36:49.524Z,355
2018-07-29T09:37:15.014Z,370
2018-07-29T09:37:40.506Z,365
2018-07-29T09:38:06.026Z,375
2018-07-29T09:38:31.507Z,370
2018-07-29T09:38:56.964Z,360
2018-07-29T09:39:22.466Z,360
2018-07-29T09:39:47.995Z,365
2018-07-29T09:40:13.448Z,365
2018-07-29T09:40:38.930Z,370
2018-07-29T09:41:04.394Z,380
2018-07-29T09:41:29.853Z,370
2018-07-29T09:41:55.333Z,370
2018-07-29T09:42:20.794Z,380
2018-07-29T09:42:46.310Z,385
2018-07-29T09:43:11.833Z,375
2018-07-29T09:43:37.419Z,405
2018-07-29T09:44:02.837Z,425
2018-07-29T09:44:28.311Z,430
2018-07-29T09:44:53.813Z,430
2018-07-29T09:45:19.411Z,430
2018-07-29T09:45:44.831Z,445
2018-07-29T09:46:10.307Z,430
2018-07-29T09:46:35.797Z,440
2018-07-29T09:47:01.372Z,445
2018-07-29T09:47:26.880Z,445
2018-07-29T09:47:52.316Z,435
2018-07-29T09:48:17.817Z,425
2018-07-29T09:48:43.330Z,425
2018-07-29T09:49:08.792Z,420
2018-07-29T09:50:17.498Z,405
2018-07-29T09:50:43.001Z,400
2018-07-29T09:51:08.536Z,410
2018-07-29T09:51:34.019Z,405
2018-07-29T09:51:59.543Z,405
2018-07-29T09:52:25.053Z,405
2018-07-29T09:52:50.555Z,405
2018-07-29T09:53:16.045Z,405
2018-07-29T09:53:41.542Z,410
2018-07-29T09:54:07.090Z,420
2018-07-29T09:55:20.966Z,435
2018-07-29T09:55:46.430Z,450
2018-07-29T09:56:11.917Z,460
2018-07-29T09:56:37.378Z,475
2018-07-29T09:57:02.853Z,490
2018-07-29T09:57:28.355Z,495
2018-07-29T09:57:53.882Z,505
2018-07-29T09:58:19.393Z,520
2018-07-29T09:58:44.866Z,520
2018-07-29T09:59:10.487Z,530
2018-07-29T09:59:35.916Z,555
2018-07-29T10:00:01.406Z,560
2018-07-29T10:00:26.895Z,550
2018-07-29T10:00:52.386Z,570
2018-07-29T10:01:17.927Z,560
2018-07-29T10:01:43.452Z,550
2018-07-29T10:02:08.961Z,555
2018-07-29T10:02:34.468Z,550
2018-07-29T10:02:59.976Z,550
2018-07-29T10:03:25.833Z,545
2018-07-29T10:03:51.250Z,550
2018-07-29T10:04:16.941Z,555
2018-07-29T10:04:42.431Z,560
2018-07-29T10:05:07.885Z,545
2018-07-29T10:05:33.403Z,535
2018-07-29T10:05:58.925Z,525
2018-07-29T10:07:12.745Z,485
2018-07-29T10:07:38.259Z,465
2018-07-29T10:08:03.729Z,450
2018-07-29T10:08:29.188Z,445
2018-07-29T10:08:54.686Z,435
2018-07-29T10:09:20.167Z,440
2018-07-29T10:09:45.644Z,430
2018-07-29T10:10:11.256Z,420
2018-07-29T10:10:36.769Z,415
2018-07-29T10:11:02.248Z,405
2018-07-29T10:11:27.706Z,395
2018-07-29T10:11:53.192Z,400
2018-07-29T10:12:18.690Z,395
2018-07-29T10:12:44.190Z,390
2018-07-29T10:13:09.686Z,390
2018-07-29T10:13:35.179Z,380
2018-07-29T10:14:00.730Z,375
2018-07-29T10:14:26.160Z,365
2018-07-29T10:14:51.699Z,345
2018-07-29T10:15:17.243Z,330
2018-07-29T10:15:42.849Z,330
2018-07-29T10:16:08.226Z,335
2018-07-29T10:16:33.799Z,355
2018-07-29T10:17:42.635Z,405
2018-07-29T10:18:08.085Z,405
2018-07-29T10:18:33.933Z,395
2018-07-29T10:19:53.080Z,390
2018-07-29T10:20:18.385Z,380
2018-07-29T10:20:43.994Z,370
2018-07-29T10:21:09.607Z,370
2018-07-29T10:21:35.046Z,370
2018-07-29T10:22:00.441Z,385
2018-07-29T10:22:25.924Z,370
2018-07-29T10:22:51.419Z,385
2018-07-29T10:23:16.947Z,380
2018-07-29T10:23:42.400Z,365
2018-07-29T10:24:07.855Z,360
2018-07-29T10:24:33.336Z,365
2018-07-29T10:24:58.818Z,370
2018-07-29T10:25:24.391Z,370
2018-07-29T10:25:49.865Z,375
2018-07-29T10:26:15.368Z,380
2018-07-29T10:26:40.854Z,375
2018-07-29T10:27:06.383Z,370
2018-07-29T10:27:31.999Z,360
2018-07-29T10:27:57.641Z,360
2018-07-29T10:28:23.147Z,355
2018-07-29T10:28:48.608Z,345
2018-07-29T10:29:14.579Z,335
2018-07-29T10:29:40.052Z,325